createdAt,value
2022-08-04T00:01:03.741Z,79
2022-08-04T00:02:20.869Z,79.3
2022-08-04T00:05:21.882Z,79.5
2022-08-04T00:06:52.404Z,79.9
2022-08-04T00:08:22.916Z,80.1
2022-08-04T00:09:53.432Z,80.1
2022-08-04T00:11:23.934Z,79.9
2022-08-04T00:12:54.444Z,79.7
2022-08-04T00:14:24.952Z,79.4
2022-08-04T00:15:55.479Z,79.3
2022-08-04T00:17:12.602Z,78.9
2022-08-04T00:18:29.279Z,79.5
2022-08-04T00:19:59.806Z,79.8
2022-08-04T00:21:30.320Z,79.9
2022-08-04T00:24:31.336Z,79.8
2022-08-04T00:26:01.841Z,79.6
2022-08-04T00:27:32.362Z,79.9
2022-08-04T00:29:02.867Z,79.1
2022-08-04T00:30:33.388Z,79.5
2022-08-04T00:33:21.023Z,80
2022-08-04T00:34:38.156Z,80.1
2022-08-04T00:36:08.673Z,80.2
2022-08-04T00:37:39.171Z,80.4
2022-08-04T00:39:09.688Z,80.3
2022-08-04T00:40:40.207Z,80.1
2022-08-04T00:42:10.707Z,80.5
2022-08-04T00:43:41.219Z,80.6
2022-08-04T00:45:11.737Z,80.4
2022-08-04T00:48:12.765Z,80.8
2022-08-04T00:49:29.893Z,80.9
2022-08-04T00:50:47.022Z,81
2022-08-04T00:52:17.525Z,81.2
2022-08-04T00:55:18.551Z,81.4
2022-08-04T00:56:49.054Z,81.7
2022-08-04T00:58:19.580Z,81.7
2022-08-04T00:59:50.079Z,81.4
2022-08-04T01:02:51.104Z,81.7
2022-08-04T01:04:21.629Z,82
2022-08-04T01:05:38.744Z,81.7
2022-08-04T01:06:55.436Z,81.5
2022-08-04T01:08:25.946Z,81.3
2022-08-04T01:09:56.472Z,81
2022-08-04T01:11:26.978Z,81.3
2022-08-04T01:12:57.490Z,81
2022-08-04T01:15:58.520Z,80
2022-08-04T01:17:29.034Z,80.5
2022-08-04T01:18:59.535Z,80.7
2022-08-04T01:20:30.050Z,81
2022-08-04T01:21:47.183Z,80.1
2022-08-04T01:23:04.302Z,80.1
2022-08-04T01:26:05.327Z,81
2022-08-04T01:27:35.833Z,80.9
2022-08-04T01:29:06.356Z,81.4
2022-08-04T01:32:07.373Z,81.3
2022-08-04T01:33:37.887Z,81.3
2022-08-04T01:35:08.406Z,81.1
2022-08-04T01:36:38.920Z,81.3
2022-08-04T01:37:56.039Z,81
2022-08-04T01:39:12.723Z,81.3
2022-08-04T01:40:43.233Z,81.4
2022-08-04T01:42:13.749Z,81.6
2022-08-04T01:43:44.258Z,81.6
2022-08-04T01:46:45.294Z,81.8
2022-08-04T01:48:15.798Z,82.1
2022-08-04T01:49:46.306Z,81.9
2022-08-04T01:51:16.834Z,81.9
2022-08-04T01:52:47.330Z,81.8
2022-08-04T01:54:04.474Z,81.4
2022-08-04T01:55:21.240Z,80.9
2022-08-04T01:56:59.863Z,80.9
2022-08-04T01:58:30.377Z,81.6
2022-08-04T02:00:00.875Z,81.5
2022-08-04T02:01:31.392Z,81.7
2022-08-04T02:03:01.900Z,81.8
2022-08-04T02:04:32.425Z,81.3
2022-08-04T02:06:02.931Z,81.6
2022-08-04T02:07:33.454Z,82
2022-08-04T02:09:03.948Z,81.9
2022-08-04T02:10:21.087Z,81.8
2022-08-04T02:11:37.943Z,81.7
2022-08-04T02:13:16.568Z,82
2022-08-04T02:14:47.074Z,81.7
2022-08-04T02:16:17.589Z,81.2
2022-08-04T02:17:48.091Z,81.1
2022-08-04T02:19:18.611Z,81.1
2022-08-04T02:20:49.119Z,81.1
2022-08-04T02:22:19.627Z,81
2022-08-04T02:25:20.654Z,81.5
2022-08-04T02:26:37.790Z,81.7
2022-08-04T02:27:54.476Z,81.8
2022-08-04T02:30:55.492Z,82.1
2022-08-04T02:32:26.003Z,82
2022-08-04T02:35:27.030Z,81.7
2022-08-04T02:36:57.540Z,81.7
2022-08-04T02:39:58.582Z,81.5
2022-08-04T02:41:29.086Z,81.1
2022-08-04T02:42:46.210Z,81.8
2022-08-04T02:45:33.843Z,82
2022-08-04T02:47:04.368Z,82.2
2022-08-04T02:48:34.871Z,82.4
2022-08-04T02:50:05.395Z,81.8
2022-08-04T02:53:06.413Z,82
2022-08-04T02:54:36.922Z,81.8
2022-08-04T02:56:07.444Z,82
2022-08-04T02:58:55.081Z,81.4
2022-08-04T03:01:50.555Z,80.7
2022-08-04T03:03:21.060Z,80.8
2022-08-04T03:06:22.090Z,81.5
2022-08-04T03:07:52.599Z,82.5
2022-08-04T03:12:24.141Z,83
2022-08-04T03:15:11.725Z,83.1
2022-08-04T03:16:28.533Z,82.8
2022-08-04T03:18:07.149Z,82.9
2022-08-04T03:21:08.170Z,82.7
2022-08-04T03:22:38.681Z,82.9
2022-08-04T03:25:39.710Z,83.2
2022-08-04T03:28:40.726Z,83.1
2022-08-04T03:30:11.252Z,83.2
2022-08-04T03:31:28.314Z,83.1
2022-08-04T03:34:15.900Z,83
2022-08-04T03:35:46.408Z,83.2
2022-08-04T03:38:47.436Z,83.3
2022-08-04T03:40:17.951Z,83.6
2022-08-04T03:44:49.487Z,83.7
2022-08-04T03:47:37.075Z,84.1
2022-08-04T03:48:53.714Z,83.8
2022-08-04T03:50:24.213Z,83.9
2022-08-04T03:51:54.732Z,83.8
2022-08-04T03:53:25.246Z,82.3
2022-08-04T03:54:55.764Z,83.2
2022-08-04T03:56:26.267Z,82.3
2022-08-04T03:57:56.784Z,80.4
2022-08-04T03:59:27.294Z,79.5
2022-08-04T04:00:57.796Z,78.8
2022-08-04T04:02:28.310Z,79.8
2022-08-04T04:03:45.398Z,79.3
2022-08-04T04:05:02.470Z,77.6
2022-08-04T04:06:32.985Z,79
2022-08-04T04:08:03.482Z,78.4
2022-08-04T04:09:34.003Z,79.8
2022-08-04T04:11:04.516Z,80.6
2022-08-04T04:12:35.013Z,77.1
2022-08-04T04:14:05.539Z,77
2022-08-04T04:15:36.047Z,79.3
2022-08-04T04:17:06.550Z,79.4
2022-08-04T04:18:37.062Z,79.7
2022-08-04T04:19:54.146Z,79.5
2022-08-04T04:21:10.944Z,80
2022-08-04T04:22:49.560Z,77.1
2022-08-04T04:24:20.071Z,77.6
2022-08-04T04:25:50.583Z,76.6
2022-08-04T04:27:21.098Z,78.7
2022-08-04T04:28:51.623Z,78.8
2022-08-04T04:30:22.131Z,76
2022-08-04T04:31:52.633Z,78.9
2022-08-04T04:33:23.155Z,79.3
2022-08-04T04:34:53.652Z,76.8
2022-08-04T04:36:10.741Z,75
2022-08-04T04:37:27.545Z,77.7
2022-08-04T04:39:06.164Z,75.3
2022-08-04T04:42:07.188Z,74.1
2022-08-04T04:43:37.684Z,73.8
2022-08-04T04:46:38.707Z,72.8
2022-08-04T04:48:09.229Z,72.3
2022-08-04T04:49:39.745Z,72.5
2022-08-04T04:51:10.254Z,74.2
2022-08-04T04:52:27.326Z,73.4
2022-08-04T04:53:44.400Z,73
2022-08-04T04:55:14.913Z,72.2
2022-08-04T04:56:45.420Z,71.3
2022-08-04T04:58:15.940Z,71.6
2022-08-04T05:01:16.953Z,71.2
2022-08-04T05:02:47.478Z,70.5
2022-08-04T05:04:17.989Z,70
2022-08-04T05:05:48.499Z,69.9
2022-08-04T05:07:18.999Z,70.1
2022-08-04T05:08:36.079Z,70.7
2022-08-04T05:09:52.891Z,70.7
2022-08-04T05:11:31.494Z,70.6
2022-08-04T05:13:02.008Z,69.8
2022-08-04T05:14:32.538Z,69.3
2022-08-04T05:16:03.041Z,69.1
2022-08-04T05:17:33.546Z,69.4
2022-08-04T05:22:05.091Z,68.8
2022-08-04T05:23:35.604Z,68.7
2022-08-04T05:24:52.679Z,68.5
2022-08-04T05:27:39.822Z,67.8
2022-08-04T05:29:10.341Z,67.9
2022-08-04T05:30:40.844Z,67.7
2022-08-04T05:32:11.360Z,67.3
2022-08-04T05:33:41.868Z,67.2
2022-08-04T05:35:12.389Z,66.8
2022-08-04T05:36:42.902Z,66.6
2022-08-04T05:39:43.925Z,66.5
2022-08-04T05:41:00.994Z,66
2022-08-04T05:42:18.056Z,65.8
2022-08-04T05:43:48.573Z,65.9
2022-08-04T05:45:19.090Z,65.6
2022-08-04T05:46:49.602Z,65.4
2022-08-04T05:49:50.623Z,65.1
2022-08-04T05:51:21.140Z,64.6
2022-08-04T05:52:51.657Z,64.7
2022-08-04T05:54:22.171Z,64.6
2022-08-04T05:55:52.680Z,64
2022-08-04T05:57:09.747Z,64.6
2022-08-04T05:58:26.829Z,64.2
2022-08-04T05:59:57.325Z,64.2
2022-08-04T06:01:27.848Z,64.2
2022-08-04T06:04:28.867Z,63.5
2022-08-04T06:05:59.371Z,64
2022-08-04T06:07:29.895Z,63.9
2022-08-04T06:09:00.400Z,63.7
2022-08-04T06:10:30.919Z,63.4
2022-08-04T06:12:01.424Z,63
2022-08-04T06:13:18.494Z,62.7
2022-08-04T06:14:35.573Z,62.3
2022-08-04T06:16:06.082Z,62.1
2022-08-04T06:17:36.602Z,62.1
2022-08-04T06:19:07.109Z,61.3
2022-08-04T06:23:06.798Z,60.4
2022-08-04T06:26:07.820Z,59.8
2022-08-04T06:29:42.530Z,58.6
2022-08-04T06:32:43.552Z,59.2
2022-08-04T06:35:44.581Z,58.3
2022-08-04T06:38:45.600Z,57.7
2022-08-04T06:41:46.621Z,57.2
2022-08-04T06:44:47.635Z,56.6
2022-08-04T06:47:48.655Z,55.5
2022-08-04T06:50:49.687Z,53.5
2022-08-04T06:53:50.721Z,51.6
2022-08-04T06:56:51.737Z,52
2022-08-04T06:58:34.807Z,50.5
2022-08-04T06:59:52.786Z,50.7
2022-08-04T07:02:53.796Z,51.1
2022-08-04T07:05:54.816Z,51
2022-08-04T07:11:56.858Z,49.9
2022-08-04T07:14:57.885Z,49.2
2022-08-04T07:20:59.936Z,47.9
2022-08-04T07:24:01.124Z,46.3
2022-08-04T07:28:45.040Z,42.4
2022-08-04T07:30:19.382Z,42.1
2022-08-04T07:33:20.417Z,42
2022-08-04T07:36:21.435Z,42
2022-08-04T07:39:22.464Z,41
2022-08-04T07:45:24.492Z,39.5
2022-08-04T07:48:25.526Z,39.1
2022-08-04T07:51:26.554Z,40
2022-08-04T07:54:27.582Z,42.1
2022-08-04T07:57:28.587Z,41.5
2022-08-04T07:58:55.298Z,40.8
2022-08-04T08:00:29.627Z,41.4
2022-08-04T08:03:30.651Z,41
2022-08-04T08:06:31.673Z,41.2
2022-08-04T08:09:32.686Z,41.8
2022-08-04T08:12:33.713Z,42.9
2022-08-04T08:15:34.743Z,40.5
2022-08-04T08:18:35.760Z,40.4
2022-08-04T08:24:37.804Z,38.8
2022-08-04T08:27:38.830Z,38.9
2022-08-04T08:29:05.558Z,39.5
2022-08-04T08:30:39.850Z,38.8
2022-08-04T08:33:40.883Z,40.7
2022-08-04T08:36:41.908Z,39.8
2022-08-04T08:39:42.917Z,38.8
2022-08-04T08:42:43.944Z,39.6
2022-08-04T08:45:44.982Z,39.2
2022-08-04T08:48:46.003Z,39.1
2022-08-04T08:51:47.030Z,38.8
2022-08-04T08:54:48.044Z,38.3
2022-08-04T08:59:15.810Z,39.5
2022-08-04T09:00:50.097Z,39.1
2022-08-04T09:09:53.162Z,39
2022-08-04T09:12:54.185Z,38.5
2022-08-04T09:18:56.226Z,36.7
2022-08-04T09:21:57.269Z,37.5
2022-08-04T09:27:59.298Z,37.6
2022-08-04T09:29:26.048Z,37.5
2022-08-04T09:31:00.340Z,37.5
2022-08-04T09:34:01.356Z,36.8
2022-08-04T09:37:02.381Z,36.5
2022-08-04T09:43:04.415Z,36.9
2022-08-04T09:46:05.449Z,35.5
2022-08-04T09:49:06.476Z,36.3
2022-08-04T09:52:07.506Z,35.7
2022-08-04T09:55:08.522Z,35
2022-08-04T09:58:09.545Z,35.4
2022-08-04T09:59:36.311Z,37.1
2022-08-04T10:01:10.568Z,35.5
2022-08-04T10:04:11.584Z,35.4
2022-08-04T10:07:12.608Z,34.6
2022-08-04T10:10:13.644Z,34.7
2022-08-04T10:13:14.655Z,34.4
2022-08-04T10:16:15.688Z,33.6
2022-08-04T10:19:16.719Z,35.2
2022-08-04T10:22:17.735Z,31.9
2022-08-04T10:25:18.751Z,33.6
2022-08-04T10:28:19.783Z,32.9
2022-08-04T10:29:46.560Z,31.6
2022-08-04T10:31:20.812Z,31.7
2022-08-04T10:37:22.860Z,31.8
2022-08-04T10:40:23.886Z,31.8
2022-08-04T10:43:24.897Z,31.6
2022-08-04T10:46:25.927Z,30.4
2022-08-04T10:49:26.939Z,31.5
2022-08-04T10:52:27.969Z,30.9
2022-08-04T10:55:29.004Z,30.1
2022-08-04T10:58:30.028Z,31.2
2022-08-04T10:59:56.833Z,30.1
2022-08-04T11:01:31.055Z,31.5
2022-08-04T11:04:32.079Z,32.4
2022-08-04T11:07:33.099Z,31.1
2022-08-04T11:10:34.117Z,29.6
2022-08-04T11:13:35.133Z,29.9
2022-08-04T11:16:36.157Z,31.5
2022-08-04T11:19:37.193Z,30.4
2022-08-04T11:22:38.215Z,30.6
2022-08-04T11:25:39.228Z,30.8
2022-08-04T11:28:40.250Z,30.8
2022-08-04T11:30:07.076Z,31.1
2022-08-04T11:31:41.280Z,31.3
2022-08-04T11:34:42.313Z,30.8
2022-08-04T11:37:43.322Z,31.5
2022-08-04T11:43:45.381Z,32.2
2022-08-04T11:46:46.395Z,30.1
2022-08-04T11:49:47.422Z,30.1
2022-08-04T11:52:48.443Z,30.4
2022-08-04T11:55:49.465Z,31.4
2022-08-04T11:58:50.496Z,30.6
2022-08-04T12:00:17.338Z,30.4
2022-08-04T12:01:51.522Z,29.8
2022-08-04T12:04:52.551Z,30.2
2022-08-04T12:07:53.568Z,30.6
2022-08-04T12:10:54.592Z,30.6
2022-08-04T12:19:57.667Z,30.7
2022-08-04T12:22:58.680Z,29.6
2022-08-04T12:25:59.712Z,30.6
2022-08-04T12:29:00.730Z,29.4
2022-08-04T12:30:27.597Z,29.9
2022-08-04T12:32:01.761Z,29.8
2022-08-04T12:35:02.771Z,31.2
2022-08-04T12:38:03.810Z,29.6
2022-08-04T12:41:04.825Z,29.9
2022-08-04T12:47:06.868Z,29.9
2022-08-04T12:50:07.906Z,29.6
2022-08-04T12:53:08.930Z,29.4
2022-08-04T12:56:09.953Z,29.7
2022-08-04T12:59:10.966Z,29.4
2022-08-04T13:00:37.841Z,29.1
2022-08-04T13:02:12.007Z,29.6
2022-08-04T13:05:13.024Z,28.8
2022-08-04T13:08:14.053Z,28.1
2022-08-04T13:11:15.067Z,28.6
2022-08-04T13:14:16.102Z,28.3
2022-08-04T13:17:17.108Z,28.7
2022-08-04T13:20:18.133Z,28.9
2022-08-04T13:23:19.167Z,28.9
2022-08-04T13:26:20.196Z,29.4
2022-08-04T13:29:21.210Z,28.4
2022-08-04T13:30:48.100Z,29.1
2022-08-04T13:32:22.246Z,28.2
2022-08-04T13:35:23.257Z,28.3
2022-08-04T13:38:24.276Z,29
2022-08-04T13:41:25.302Z,28.3
2022-08-04T13:44:26.345Z,29
2022-08-04T13:47:27.353Z,28.6
2022-08-04T13:50:28.376Z,28.9
2022-08-04T13:53:29.413Z,29.1
2022-08-04T13:56:30.437Z,29.1
2022-08-04T13:59:31.452Z,29.3
2022-08-04T14:00:58.367Z,29.5
2022-08-04T14:02:32.479Z,29.6
2022-08-04T14:05:33.512Z,29.7
2022-08-04T14:08:34.538Z,30.5
2022-08-04T14:11:35.556Z,29.9
2022-08-04T14:14:36.573Z,29.7
2022-08-04T14:17:37.610Z,29.3
2022-08-04T14:20:38.623Z,29.6
2022-08-04T14:23:39.645Z,29.2
2022-08-04T14:26:40.677Z,29.4
2022-08-04T14:29:41.700Z,28.7
2022-08-04T14:31:08.623Z,28.7
2022-08-04T14:32:42.713Z,28.8
2022-08-04T14:35:43.736Z,28.6
2022-08-04T14:38:44.769Z,29.7
2022-08-04T14:41:45.797Z,28.8
2022-08-04T14:44:46.809Z,28.4
2022-08-04T14:47:47.841Z,29.3
2022-08-04T14:50:48.874Z,30.4
2022-08-04T14:53:49.899Z,29.9
2022-08-04T14:56:50.918Z,29.3
2022-08-04T14:59:51.927Z,29.4
2022-08-04T15:01:18.886Z,29.8
2022-08-04T15:02:52.965Z,29.6
2022-08-04T15:05:53.982Z,29.4
2022-08-04T15:11:56.038Z,29.5
2022-08-04T15:14:57.062Z,29
2022-08-04T15:17:58.071Z,28.7
2022-08-04T15:20:59.099Z,28.9
2022-08-04T15:24:00.126Z,29.4
2022-08-04T15:27:01.160Z,29.6
2022-08-04T15:30:02.166Z,28.9
2022-08-04T15:31:29.151Z,29.4
2022-08-04T15:33:03.201Z,29.5
2022-08-04T15:36:04.215Z,29.7
2022-08-04T15:39:05.253Z,29.9
2022-08-04T15:42:06.266Z,30.4
2022-08-04T15:45:07.301Z,29.8
2022-08-04T15:48:08.314Z,30.1
2022-08-04T15:51:09.349Z,29.6
2022-08-04T15:54:10.363Z,29.7
2022-08-04T15:57:11.384Z,29.4
2022-08-04T16:00:12.422Z,29
2022-08-04T16:01:39.403Z,28.9
2022-08-04T16:03:13.437Z,29
2022-08-04T16:06:14.455Z,30.1
2022-08-04T16:09:15.475Z,29.5
2022-08-04T16:12:16.515Z,30.2
2022-08-04T16:15:17.533Z,29.8
2022-08-04T16:18:18.554Z,30
2022-08-04T16:21:19.588Z,29.3
2022-08-04T16:24:20.601Z,29.9
2022-08-04T16:27:21.633Z,29.4
2022-08-04T16:31:49.643Z,30.1
2022-08-04T16:33:23.679Z,30.3
2022-08-04T16:36:24.696Z,30.5
2022-08-04T16:39:25.720Z,30.4
2022-08-04T16:42:26.759Z,29.9
2022-08-04T16:51:29.811Z,30.2
2022-08-04T16:54:30.844Z,32.4
2022-08-04T16:57:31.867Z,31.4
2022-08-04T17:00:32.883Z,31.3
2022-08-04T17:01:59.913Z,31.2
2022-08-04T17:03:34.089Z,30.9
2022-08-04T17:06:51.316Z,31.4
2022-08-04T17:09:52.342Z,31.3
2022-08-04T17:12:53.362Z,31.4
2022-08-04T17:15:54.387Z,31.7
2022-08-04T17:18:55.418Z,32
2022-08-04T17:21:56.436Z,31.5
2022-08-04T17:24:57.467Z,32.2
2022-08-04T17:27:58.490Z,32.3
2022-08-04T17:30:59.512Z,32.3
2022-08-04T17:32:17.487Z,32.3
2022-08-04T17:34:00.537Z,33.1
2022-08-04T17:37:01.547Z,32.5
2022-08-04T17:40:02.574Z,33.4
2022-08-04T17:43:03.603Z,33.5
2022-08-04T17:46:04.632Z,33.4
2022-08-04T17:49:05.660Z,33.5
2022-08-04T17:52:06.676Z,33.7
2022-08-04T17:55:07.700Z,34.7
2022-08-04T17:58:08.719Z,34.3
2022-08-04T18:01:09.734Z,37.5
2022-08-04T18:02:27.747Z,37.3
2022-08-04T18:04:10.777Z,34.9
2022-08-04T18:07:11.802Z,34.8
2022-08-04T18:10:12.811Z,38.7
2022-08-04T18:13:13.849Z,36.5
2022-08-04T18:16:14.866Z,36.9
2022-08-04T18:22:16.904Z,38.1
2022-08-04T18:25:17.925Z,38
2022-08-04T18:28:18.945Z,38.1
2022-08-04T18:31:19.979Z,39
2022-08-04T18:32:37.984Z,41.1
2022-08-04T18:34:21.011Z,41.1
2022-08-04T18:37:22.023Z,44.5
2022-08-04T18:40:23.045Z,45.8
2022-08-04T18:43:24.084Z,48.6
2022-08-04T18:46:25.092Z,43.8
2022-08-04T18:49:26.129Z,48.3
2022-08-04T18:52:27.153Z,46.8
2022-08-04T18:55:28.178Z,48.4
2022-08-04T18:58:29.196Z,43.5
2022-08-04T19:01:30.223Z,47.1
2022-08-04T19:02:48.240Z,49.1
2022-08-04T19:04:31.238Z,49.5
2022-08-04T19:07:32.251Z,48.3
2022-08-04T19:10:33.288Z,48.7
2022-08-04T19:13:34.315Z,47.5
2022-08-04T19:16:35.339Z,49.7
2022-08-04T19:19:36.362Z,46.6
2022-08-04T19:22:37.381Z,51.2
2022-08-04T19:25:38.410Z,50.5
2022-08-04T19:28:39.420Z,52.3
2022-08-04T19:31:40.444Z,51.6
2022-08-04T19:32:58.503Z,50.6
2022-08-04T19:34:41.482Z,50.4
2022-08-04T19:37:42.492Z,50.5
2022-08-04T19:40:43.515Z,49.7
2022-08-04T19:43:44.538Z,47.6
2022-08-04T19:46:45.565Z,47.1
2022-08-04T19:52:47.605Z,46.8
2022-08-04T19:55:48.626Z,48.7
2022-08-04T19:58:49.656Z,46.6
2022-08-04T20:01:50.679Z,46.4
2022-08-04T20:03:08.734Z,46.2
2022-08-04T20:04:51.706Z,46.4
2022-08-04T20:07:52.725Z,46
2022-08-04T20:10:53.759Z,46.4
2022-08-04T20:13:54.781Z,46.1
2022-08-04T20:16:55.803Z,46.5
2022-08-04T20:19:56.808Z,46.6
2022-08-04T20:22:57.835Z,46.5
2022-08-04T20:25:58.869Z,46.6
2022-08-04T20:28:59.887Z,47.1
2022-08-04T20:32:00.902Z,47.1
2022-08-04T20:33:18.993Z,46.7
2022-08-04T20:35:01.939Z,46.7
2022-08-04T20:38:02.958Z,46.7
2022-08-04T20:41:03.983Z,46.4
2022-08-04T20:44:05.003Z,46
2022-08-04T20:47:06.029Z,45.9
2022-08-04T20:50:07.052Z,45.8
2022-08-04T20:53:08.063Z,45.6
2022-08-04T20:56:09.103Z,45.6
2022-08-04T20:59:10.116Z,45.6
2022-08-04T21:02:11.132Z,45.6
2022-08-04T21:03:29.236Z,45.5
2022-08-04T21:05:12.168Z,45.5
2022-08-04T21:08:13.192Z,45.4
2022-08-04T21:11:14.205Z,45.2
2022-08-04T21:14:15.243Z,44.9
2022-08-04T21:17:16.246Z,45.4
2022-08-04T21:20:17.275Z,45.4
2022-08-04T21:23:18.295Z,45.1
2022-08-04T21:26:19.323Z,45.5
2022-08-04T21:29:20.352Z,45.1
2022-08-04T21:32:21.367Z,45.1
2022-08-04T21:33:39.497Z,45.4
2022-08-04T21:35:22.401Z,45.5
2022-08-04T21:38:23.415Z,45.5
2022-08-04T21:41:24.431Z,45.7
2022-08-04T21:44:25.471Z,45.6
2022-08-04T21:47:26.496Z,45.8
2022-08-04T21:50:27.500Z,46.1
2022-08-04T21:53:28.521Z,45.4
2022-08-04T21:56:29.547Z,45.6
2022-08-04T21:59:30.569Z,45.7
2022-08-04T22:02:31.594Z,46
2022-08-04T22:03:49.733Z,46.4
2022-08-04T22:05:32.630Z,46.1
2022-08-04T22:08:33.650Z,46.5
2022-08-04T22:11:34.669Z,46.4
2022-08-04T22:14:35.685Z,46.4
2022-08-04T22:17:36.716Z,46.2
2022-08-04T22:20:37.738Z,46.1
2022-08-04T22:23:38.760Z,46.2
2022-08-04T22:26:39.793Z,46.1
2022-08-04T22:29:40.797Z,46
2022-08-04T22:32:41.821Z,46.5
2022-08-04T22:33:59.982Z,46.5
2022-08-04T22:35:42.862Z,46.5
2022-08-04T22:38:43.869Z,46.5
2022-08-04T22:41:44.901Z,46.7
2022-08-04T22:44:45.924Z,46.8
2022-08-04T22:47:46.953Z,47
2022-08-04T22:50:47.964Z,46.7
2022-08-04T22:53:48.985Z,46.8
2022-08-04T22:56:50.017Z,46.9
2022-08-04T22:59:51.035Z,46.8
2022-08-04T23:02:52.052Z,46.6
2022-08-04T23:04:10.233Z,46.6
2022-08-04T23:05:53.090Z,46.6
2022-08-04T23:08:54.102Z,46.6
2022-08-04T23:11:55.119Z,46.5
2022-08-04T23:14:56.149Z,46.6
2022-08-04T23:17:57.183Z,47
2022-08-04T23:20:58.200Z,48
2022-08-04T23:27:00.245Z,50.5
2022-08-04T23:30:01.263Z,49.7
2022-08-04T23:34:20.479Z,51.2
2022-08-04T23:39:04.329Z,53.4
2022-08-04T23:42:05.355Z,51.3
2022-08-04T23:48:07.400Z,53.9
2022-08-04T23:51:08.430Z,53.1
2022-08-04T23:54:09.450Z,56.7
2022-08-04T23:57:10.471Z,53.4
